Time;durP1;ratioP1;P1;durP2;ratioP2;P2;SDS_P1;SDS_P2;PMS_P1;PMS_P2;Temp;Humidity;BMP_temperature;BMP_pressure;BME280_temperature;BME280_humidity;BME280_pressure;Samples;Min_cycle;Max_cycle;Signal;HPM_P1;HPM_P2
2023/05/31 00:02:20;;;;;;;;;9.75;5.75;;;;;13.40;72.70;102732.44;5051222;28;9590;-70
2023/05/31 00:04:46;;;;;;;;;2.00;2.00;;;;;13.36;73.18;102740.03;5046033;28;9854;-70
2023/05/31 00:07:13;;;;;;;;;4.50;4.50;;;;;13.40;73.32;102737.84;5068236;28;9514;-70
2023/05/31 00:09:39;;;;;;;;;3.50;3.50;;;;;13.38;72.97;102734.50;5065784;28;9597;-69
2023/05/31 00:12:06;;;;;;;;;1.50;1.50;;;;;13.42;73.58;102735.84;5058808;28;9522;-70
2023/05/31 00:14:33;;;;;;;;;5.75;3.25;;;;;13.49;73.22;102739.56;5057061;28;9510;-69
2023/05/31 00:16:59;;;;;;;;;2.00;2.00;;;;;13.52;73.13;102733.81;5043483;28;9567;-70
2023/05/31 00:19:29;;;;;;;;;5.25;4.25;;;;;13.52;72.73;102736.53;5049903;28;9603;-69
2023/05/31 00:21:56;;;;;;;;;4.00;2.00;;;;;13.48;73.28;102732.47;5029786;28;9549;-70
2023/05/31 00:24:22;;;;;;;;;3.00;3.00;;;;;13.47;73.35;102726.22;5043943;28;9689;-70
2023/05/31 00:26:49;;;;;;;;;5.75;4.00;;;;;13.47;73.56;102730.78;5056221;28;9595;-69
2023/05/31 00:29:15;;;;;;;;;2.25;2.25;;;;;13.41;73.35;102728.72;5021943;28;9660;-69
2023/05/31 00:31:42;;;;;;;;;4.00;4.00;;;;;13.34;73.97;102725.84;5053372;28;9647;-69
2023/05/31 00:34:10;;;;;;;;;5.00;3.00;;;;;13.33;74.01;102725.03;5049785;28;9736;-69
2023/05/31 00:36:37;;;;;;;;;10.75;4.50;;;;;13.29;73.91;102718.25;5064046;28;9805;-69
2023/05/31 00:39:03;;;;;;;;;4.00;2.00;;;;;13.25;74.43;102719.59;5061337;28;9706;-69
2023/05/31 00:41:30;;;;;;;;;3.75;3.75;;;;;13.29;74.18;102726.34;5055697;28;9674;-70
2023/05/31 00:43:56;;;;;;;;;3.00;2.00;;;;;13.27;74.42;102727.53;5060959;28;9814;-70
2023/05/31 00:46:25;;;;;;;;;4.25;3.00;;;;;13.27;74.30;102732.94;5051138;28;9701;-69
2023/05/31 00:48:52;;;;;;;;;1.75;1.75;;;;;13.28;74.15;102730.06;5055195;28;9917;-70
2023/05/31 00:51:19;;;;;;;;;2.75;2.75;;;;;13.25;74.14;102729.56;5061903;28;9681;-69
2023/05/31 00:53:47;;;;;;;;;1.00;1.00;;;;;13.29;74.68;102731.78;5071295;28;10318;-69
2023/05/31 00:56:15;;;;;;;;;2.00;2.00;;;;;13.29;74.16;102733.63;5053969;28;9491;-69
2023/05/31 00:58:43;;;;;;;;;5.75;2.75;;;;;13.28;74.33;102740.88;5041186;28;9598;-69
2023/05/31 01:01:12;;;;;;;;;1.75;1.50;;;;;13.20;74.33;102738.13;5067845;28;9828;-69
2023/05/31 01:03:40;;;;;;;;;3.75;3.50;;;;;13.14;74.61;102743.34;5068660;28;9738;-70
2023/05/31 01:06:10;;;;;;;;;2.00;2.00;;;;;13.19;74.85;102746.41;5054871;28;10359;-69
2023/05/31 01:08:37;;;;;;;;;2.25;2.00;;;;;13.21;74.82;102745.25;5071092;28;9609;-69
2023/05/31 01:11:12;;;;;;;;;3.50;3.50;;;;;13.23;74.53;102736.97;5050910;28;9683;-69
2023/05/31 01:14:06;;;;;;;;;5.00;4.00;;;;;13.25;74.28;102741.22;5048799;28;9688;-70
2023/05/31 01:16:41;;;;;;;;;5.75;5.75;;;;;13.17;74.44;102745.75;5069660;28;9817;-69
2023/05/31 01:19:17;;;;;;;;;8.50;5.00;;;;;13.08;74.88;102742.13;5054368;28;9892;-69
2023/05/31 01:22:01;;;;;;;;;3.25;3.00;;;;;13.08;75.37;102739.44;5045193;28;9932;-69
2023/05/31 01:24:52;;;;;;;;;2.75;2.75;;;;;13.11;74.90;102741.81;5040608;28;9760;-69
2023/05/31 01:27:21;;;;;;;;;4.00;4.00;;;;;13.06;74.68;102731.50;5062865;28;9660;-69
2023/05/31 01:29:49;;;;;;;;;5.00;3.00;;;;;13.03;75.26;102734.53;5048875;28;9662;-70
2023/05/31 01:32:21;;;;;;;;;2.50;2.50;;;;;13.06;74.92;102744.19;5048872;28;9607;-69
2023/05/31 01:34:49;;;;;;;;;5.25;5.25;;;;;13.05;75.38;102739.78;5044824;28;9666;-70
2023/05/31 01:37:15;;;;;;;;;5.25;2.50;;;;;13.07;75.30;102741.28;5044875;28;9776;-70
2023/05/31 01:39:42;;;;;;;;;2.50;2.50;;;;;13.11;75.34;102739.13;5063162;28;9740;-71
2023/05/31 01:42:10;;;;;;;;;1.75;1.75;;;;;13.20;75.10;102737.28;5071822;28;9752;-70
2023/05/31 01:44:40;;;;;;;;;2.50;1.75;;;;;13.25;74.79;102740.38;5058359;28;9592;-69
2023/05/31 01:47:08;;;;;;;;;3.50;3.00;;;;;13.24;74.52;102738.66;5059195;28;9701;-69
2023/05/31 01:49:37;;;;;;;;;2.00;2.00;;;;;13.23;74.61;102736.97;5069762;28;9719;-69
2023/05/31 01:52:06;;;;;;;;;1.50;1.50;;;;;13.24;74.44;102734.09;5052425;28;10311;-70
2023/05/31 01:54:33;;;;;;;;;3.00;3.00;;;;;13.18;74.18;102734.75;5071942;28;9607;-70
2023/05/31 01:57:04;;;;;;;;;4.50;3.25;;;;;13.11;73.72;102737.25;5058271;28;9654;-70
2023/05/31 01:59:33;;;;;;;;;6.00;5.50;;;;;13.01;74.09;102743.81;5047807;28;9863;-71
2023/05/31 02:02:02;;;;;;;;;3.00;2.50;;;;;12.85;74.23;102740.03;5036802;28;9726;-70
2023/05/31 02:04:28;;;;;;;;;1.25;1.25;;;;;12.80;75.05;102734.28;5056388;28;9798;-70
2023/05/31 02:06:55;;;;;;;;;4.75;4.75;;;;;12.87;75.11;102732.59;5055506;28;10053;-70
2023/05/31 02:09:24;;;;;;;;;1.25;1.25;;;;;12.91;74.65;102733.13;5052252;28;9755;-69
2023/05/31 02:11:53;;;;;;;;;4.50;4.50;;;;;12.93;74.54;102725.72;5041105;28;9508;-68
2023/05/31 02:14:20;;;;;;;;;3.50;3.00;;;;;12.95;74.73;102718.28;5044766;28;9942;-69
2023/05/31 02:16:47;;;;;;;;;5.25;4.75;;;;;12.95;74.48;102725.53;5037664;28;9843;-69
2023/05/31 02:19:13;;;;;;;;;6.00;4.25;;;;;12.88;74.08;102717.22;5050057;28;9729;-69
2023/05/31 02:21:41;;;;;;;;;5.75;4.50;;;;;12.89;74.52;102712.69;5052598;28;9778;-69
2023/05/31 02:24:08;;;;;;;;;3.00;3.00;;;;;12.87;73.99;102716.38;5036273;28;9756;-69
2023/05/31 02:26:34;;;;;;;;;3.00;2.00;;;;;12.90;74.14;102719.78;5063686;28;9843;-69
2023/05/31 02:29:01;;;;;;;;;4.50;4.50;;;;;12.86;73.32;102724.69;5032475;28;9697;-69
2023/05/31 02:31:27;;;;;;;;;4.75;2.50;;;;;12.78;73.86;102720.06;5047021;28;9877;-67
2023/05/31 02:33:54;;;;;;;;;3.50;2.00;;;;;12.80;74.27;102718.06;5053623;28;9746;-70
2023/05/31 02:36:21;;;;;;;;;2.25;2.25;;;;;12.82;73.91;102726.84;5056103;28;10411;-69
2023/05/31 02:38:48;;;;;;;;;5.25;5.00;;;;;12.84;73.81;102723.97;5062401;28;9912;-68
2023/05/31 02:41:14;;;;;;;;;1.75;1.00;;;;;12.87;73.70;102727.19;5067138;28;9846;-68
2023/05/31 02:43:41;;;;;;;;;5.50;2.00;;;;;12.93;73.67;102723.03;5042211;28;9806;-69
2023/05/31 02:46:07;;;;;;;;;1.00;1.00;;;;;12.92;73.34;102713.19;5047186;28;11297;-67
2023/05/31 02:48:34;;;;;;;;;5.75;2.00;;;;;12.89;73.39;102720.81;5052368;28;9705;-68
2023/05/31 02:51:00;;;;;;;;;2.00;2.00;;;;;12.92;73.27;102720.47;5050436;28;9774;-68
2023/05/31 02:53:48;;;;;;;;;4.00;2.00;;;;;12.94;73.17;102710.34;5054657;28;9735;-70
2023/05/31 02:56:20;;;;;;;;;5.50;4.00;;;;;12.93;73.07;102714.06;5051275;28;9697;-69
2023/05/31 02:59:09;;;;;;;;;4.00;4.00;;;;;12.92;73.22;102715.06;5056979;28;9874;-69
2023/05/31 03:01:56;;;;;;;;;2.00;2.00;;;;;12.85;73.18;102717.59;5060494;28;10013;-69
2023/05/31 03:04:35;;;;;;;;;2.25;2.25;;;;;12.83;73.76;102716.88;5056412;28;9763;-68
2023/05/31 03:07:03;;;;;;;;;5.50;3.00;;;;;12.82;73.32;102723.31;5053441;28;10571;-69
2023/05/31 03:09:30;;;;;;;;;3.50;3.00;;;;;12.81;73.53;102716.22;5051764;28;9921;-69
2023/05/31 03:11:58;;;;;;;;;4.50;3.00;;;;;12.79;73.98;102723.63;5055415;28;9678;-68
2023/05/31 03:14:25;;;;;;;;;6.50;4.50;;;;;12.78;73.23;102716.53;5033275;28;9924;-69
2023/05/31 03:16:53;;;;;;;;;5.50;2.00;;;;;12.72;74.13;102723.44;5037346;28;10591;-69
2023/05/31 03:19:20;;;;;;;;;5.75;5.00;;;;;12.70;73.90;102728.16;5043874;28;9836;-69
2023/05/31 03:21:50;;;;;;;;;3.00;3.00;;;;;12.65;74.38;102722.41;5045558;28;9844;-69
2023/05/31 03:24:17;;;;;;;;;5.50;5.00;;;;;12.68;74.20;102723.91;5048954;28;9763;-68
2023/05/31 03:26:46;;;;;;;;;2.50;1.50;;;;;12.70;74.78;102728.16;5048258;28;9890;-68
2023/05/31 03:29:13;;;;;;;;;3.25;3.25;;;;;12.75;74.70;102719.56;5045617;28;9858;-68
2023/05/31 03:31:40;;;;;;;;;6.50;4.50;;;;;12.80;74.87;102719.91;5050502;28;9775;-69
2023/05/31 03:34:08;;;;;;;;;5.00;5.00;;;;;12.86;74.62;102725.53;5047678;28;9780;-68
2023/05/31 03:36:36;;;;;;;;;2.00;2.00;;;;;12.86;74.84;102725.53;5047214;28;9978;-69
2023/05/31 03:39:20;;;;;;;;;2.00;1.25;;;;;12.90;74.93;102727.91;5047610;28;9749;-69
2023/05/31 03:41:47;;;;;;;;;4.50;2.50;;;;;12.89;75.18;102732.47;5035218;28;9761;-69
2023/05/31 03:44:14;;;;;;;;;7.00;5.00;;;;;12.89;74.82;102731.63;5049228;28;10028;-69
2023/05/31 03:46:41;;;;;;;;;4.25;4.25;;;;;12.84;75.17;102734.78;5035809;28;9816;-69
2023/05/31 03:49:07;;;;;;;;;5.50;3.50;;;;;12.82;75.28;102726.84;5047418;28;9893;-69
2023/05/31 03:51:34;;;;;;;;;6.00;6.00;;;;;12.78;75.64;102730.06;5034820;28;9834;-68
2023/05/31 03:54:01;;;;;;;;;6.00;6.00;;;;;12.74;75.68;102729.53;5033187;28;9991;-69
2023/05/31 03:56:28;;;;;;;;;4.75;4.75;;;;;12.75;76.16;102733.91;5043359;28;9905;-70
2023/05/31 03:58:54;;;;;;;;;2.50;2.50;;;;;12.81;75.81;102735.13;5067132;28;9828;-68
2023/05/31 04:01:21;;;;;;;;;7.00;7.00;;;;;12.80;75.89;102737.00;5045256;28;9885;-69
2023/05/31 04:03:48;;;;;;;;;3.50;3.50;;;;;12.85;75.83;102736.50;5069123;28;10762;-69
2023/05/31 04:06:15;;;;;;;;;6.25;6.25;;;;;12.85;75.49;102742.75;5050264;28;9833;-69
2023/05/31 04:08:42;;;;;;;;;7.00;6.00;;;;;12.84;75.51;102742.91;5035443;28;9980;-70
2023/05/31 04:11:09;;;;;;;;;9.00;6.50;;;;;12.83;75.69;102735.81;5073944;28;9825;-69
2023/05/31 04:13:36;;;;;;;;;5.75;4.00;;;;;12.86;75.61;102740.88;5072817;28;9767;-69
2023/05/31 04:16:03;;;;;;;;;7.00;7.00;;;;;12.84;75.48;102734.78;5070307;28;10033;-68
2023/05/31 04:18:29;;;;;;;;;7.00;7.00;;;;;12.84;75.89;102737.50;5054829;28;9918;-69
2023/05/31 04:20:56;;;;;;;;;6.25;6.00;;;;;12.88;76.19;102730.75;5068526;28;10122;-69
2023/05/31 04:23:23;;;;;;;;;7.00;4.75;;;;;12.95;75.88;102739.91;5074440;28;9903;-68
2023/05/31 04:25:50;;;;;;;;;5.50;5.50;;;;;12.97;76.07;102737.06;5071065;28;9904;-70
2023/05/31 04:28:18;;;;;;;;;6.00;6.00;;;;;12.99;75.96;102738.56;5051912;28;9887;-70
2023/05/31 04:30:46;;;;;;;;;5.50;4.50;;;;;12.99;75.44;102740.44;5053051;28;9927;-69
2023/05/31 04:33:13;;;;;;;;;4.75;4.00;;;;;12.95;75.31;102744.47;5068490;28;9827;-70
2023/05/31 04:35:40;;;;;;;;;5.25;5.25;;;;;12.93;75.44;102746.50;5057022;28;10729;-69
2023/05/31 04:38:08;;;;;;;;;5.00;4.50;;;;;12.92;75.83;102750.19;5065196;28;9891;-69
2023/05/31 04:40:34;;;;;;;;;6.75;6.25;;;;;12.88;75.72;102738.84;5047687;28;9854;-69
2023/05/31 04:43:01;;;;;;;;;7.50;6.00;;;;;12.87;75.69;102743.41;5053892;28;9916;-69
2023/05/31 04:45:32;;;;;;;;;15.75;9.50;;;;;12.86;76.07;102740.88;5045942;28;9889;-68
2023/05/31 04:48:00;;;;;;;;;9.00;7.75;;;;;12.87;76.18;102737.16;5052503;28;10589;-68
2023/05/31 04:50:28;;;;;;;;;7.50;6.75;;;;;12.90;76.33;102741.41;5041211;28;10009;-68
2023/05/31 04:52:57;;;;;;;;;8.50;6.00;;;;;12.88;76.08;102741.56;5032264;28;10698;-68
2023/05/31 04:55:24;;;;;;;;;4.75;4.75;;;;;12.90;76.11;102747.66;5058225;28;10018;-69
2023/05/31 04:57:51;;;;;;;;;8.00;7.25;;;;;12.89;76.31;102745.13;5058248;28;9745;-68
2023/05/31 05:00:19;;;;;;;;;4.33;4.33;;;;;12.97;76.04;102743.31;5068131;28;9730;-68
2023/05/31 05:03:00;;;;;;;;;9.75;7.00;;;;;12.98;75.29;102736.88;5067371;28;9595;-67
2023/05/31 05:05:27;;;;;;;;;9.50;6.00;;;;;12.99;75.46;102743.13;5056280;28;9729;-68
2023/05/31 05:07:55;;;;;;;;;6.25;6.25;;;;;12.98;75.54;102736.88;5058153;28;10476;-68
2023/05/31 05:10:23;;;;;;;;;7.00;6.50;;;;;13.01;75.63;102743.81;5058229;28;9911;-67
2023/05/31 05:12:50;;;;;;;;;8.00;6.00;;;;;13.04;75.73;102743.47;5060784;28;9849;-68
2023/05/31 05:15:17;;;;;;;;;7.50;6.75;;;;;13.06;76.00;102747.72;5041321;28;9921;-69
2023/05/31 05:17:45;;;;;;;;;8.00;5.75;;;;;13.10;75.83;102745.53;5048489;28;9943;-68
2023/05/31 05:20:13;;;;;;;;;6.75;6.00;;;;;13.11;74.95;102750.78;5047755;28;9956;-68
2023/05/31 05:22:51;;;;;;;;;11.50;8.00;;;;;13.14;75.30;102748.75;5054227;28;9872;-68
2023/05/31 05:25:18;;;;;;;;;9.25;8.75;;;;;13.17;75.44;102751.16;5071276;28;9915;-68
2023/05/31 05:27:44;;;;;;;;;9.75;8.50;;;;;13.22;75.75;102748.78;5067223;28;9853;-68
2023/05/31 05:30:12;;;;;;;;;6.00;6.00;;;;;13.38;75.95;102746.16;5056325;28;9942;-69
2023/05/31 05:32:39;;;;;;;;;5.00;5.00;;;;;13.55;75.51;102747.03;5027061;28;9868;-71
2023/05/31 05:35:06;;;;;;;;;3.25;2.50;;;;;13.73;74.85;102750.44;5059674;28;9748;-68
2023/05/31 05:37:32;;;;;;;;;4.50;3.00;;;;;13.84;74.31;102751.94;5048584;28;10475;-68
2023/05/31 05:39:59;;;;;;;;;7.00;7.00;;;;;13.99;74.85;102754.81;5054489;28;9585;-69
2023/05/31 05:42:28;;;;;;;;;6.75;6.75;;;;;14.25;73.96;102751.91;5035392;28;10430;-68
2023/05/31 05:44:54;;;;;;;;;5.00;5.00;;;;;14.37;72.41;102755.09;5050960;28;9686;-68
2023/05/31 05:47:20;;;;;;;;;6.75;6.00;;;;;14.42;72.21;102760.84;5037567;28;9524;-68
2023/05/31 05:49:50;;;;;;;;;7.50;7.00;;;;;14.37;71.48;102760.53;5051881;28;9501;-68
2023/05/31 05:52:17;;;;;;;;;8.25;6.25;;;;;14.26;72.76;102762.59;5050874;28;9516;-69
2023/05/31 05:54:44;;;;;;;;;9.50;6.00;;;;;14.21;72.14;102761.41;5054096;28;9596;-69
2023/05/31 05:57:11;;;;;;;;;8.00;6.25;;;;;14.09;72.72;102759.03;5051003;28;10356;-68
2023/05/31 05:59:41;;;;;;;;;9.00;7.25;;;;;14.04;73.18;102761.41;5040765;28;9612;-71
2023/05/31 06:02:19;;;;;;;;;10.50;6.75;;;;;14.06;73.31;102753.97;5052166;28;9508;-67
2023/05/31 06:04:49;;;;;;;;;9.50;7.50;;;;;14.10;73.03;102755.31;5048800;28;10207;-69
2023/05/31 06:07:16;;;;;;;;;5.25;3.50;;;;;14.11;73.28;102748.03;5031104;28;9734;-68
2023/05/31 06:09:43;;;;;;;;;6.00;5.25;;;;;14.17;73.33;102754.63;5053315;28;10260;-67
2023/05/31 06:12:10;;;;;;;;;6.00;5.25;;;;;14.27;73.17;102760.72;5038949;28;9612;-67
2023/05/31 06:14:39;;;;;;;;;5.75;3.00;;;;;14.31;72.77;102757.50;5052321;28;9503;-68
2023/05/31 06:17:06;;;;;;;;;11.00;9.00;;;;;14.30;72.09;102753.09;5069514;28;10224;-67
2023/05/31 06:19:33;;;;;;;;;7.00;6.25;;;;;14.18;72.42;102761.72;5053611;28;9671;-67
2023/05/31 06:22:00;;;;;;;;;9.25;7.50;;;;;14.07;73.50;102755.66;5053495;28;9480;-69
2023/05/31 06:24:27;;;;;;;;;7.25;7.00;;;;;13.99;73.54;102749.41;5036829;28;9594;-69
2023/05/31 06:26:53;;;;;;;;;7.50;6.00;;;;;13.95;73.87;102757.03;5036503;28;9611;-69
2023/05/31 06:29:25;;;;;;;;;6.00;6.00;;;;;14.00;74.04;102751.09;5052532;28;9576;-69
2023/05/31 06:32:03;;;;;;;;;7.25;7.25;;;;;14.08;73.50;102757.34;5048605;28;10179;-69
2023/05/31 06:34:35;;;;;;;;;11.50;10.50;;;;;14.01;72.71;102752.78;5037060;28;10057;-69
2023/05/31 06:37:02;;;;;;;;;8.25;5.25;;;;;13.93;73.52;102750.06;5053477;28;9559;-69
2023/05/31 06:39:29;;;;;;;;;7.00;6.00;;;;;13.99;73.94;102749.41;5036992;28;9526;-70
2023/05/31 06:41:56;;;;;;;;;6.00;6.00;;;;;14.06;74.04;102756.69;5058646;28;10295;-69
2023/05/31 06:44:44;;;;;;;;;9.75;8.25;;;;;14.12;73.70;102754.31;5051551;28;9448;-69
2023/05/31 06:47:34;;;;;;;;;9.75;7.00;;;;;14.16;72.79;102744.81;5049634;28;9428;-69
2023/05/31 06:50:24;;;;;;;;;11.25;9.25;;;;;14.13;72.94;102750.56;5022234;28;9539;-69
2023/05/31 06:53:09;;;;;;;;;8.00;8.00;;;;;14.06;73.09;102761.25;5036011;28;10433;-72
2023/05/31 06:55:45;;;;;;;;;16.25;9.25;;;;;13.97;73.47;102746.84;5045997;28;9710;-69
2023/05/31 06:58:17;;;;;;;;;12.25;8.25;;;;;13.92;74.17;102756.50;5056142;28;9667;-70
2023/05/31 07:00:45;;;;;;;;;6.50;6.50;;;;;13.87;74.07;102746.19;5053224;28;10621;-70
2023/05/31 07:03:22;;;;;;;;;14.00;11.00;;;;;13.99;73.98;102762.94;5069516;28;9678;-69
2023/05/31 07:05:49;;;;;;;;;9.50;9.50;;;;;14.01;72.95;102756.31;5052696;28;10679;-69
2023/05/31 07:08:16;;;;;;;;;10.25;7.25;;;;;14.07;73.56;102757.53;5069289;28;9660;-69
2023/05/31 07:11:05;;;;;;;;;5.75;5.00;;;;;14.16;73.93;102759.19;5064311;28;9669;-69
2023/05/31 07:13:31;;;;;;;;;7.25;7.25;;;;;14.19;73.45;102764.28;5067900;28;10372;-70
2023/05/31 07:15:58;;;;;;;;;9.00;7.00;;;;;14.35;72.95;102766.97;5036086;28;9743;-69
2023/05/31 07:18:25;;;;;;;;;10.50;7.00;;;;;14.41;73.17;102768.13;5069217;28;9729;-69
2023/05/31 07:20:56;;;;;;;;;9.50;7.75;;;;;14.40;72.24;102763.72;5052526;28;9589;-71
2023/05/31 07:23:26;;;;;;;;;7.50;7.50;;;;;14.39;72.62;102759.34;5068555;28;9583;-69
2023/05/31 07:25:53;;;;;;;;;9.50;8.00;;;;;14.47;72.81;102758.47;5034345;28;9681;-70
2023/05/31 07:28:20;;;;;;;;;12.25;9.75;;;;;14.44;72.24;102754.25;5032541;28;9686;-70
2023/05/31 07:30:46;;;;;;;;;11.00;9.75;;;;;14.32;71.88;102755.63;5032674;28;9746;-71
2023/05/31 07:33:12;;;;;;;;;9.75;7.00;;;;;14.29;72.48;102758.66;5050628;28;9680;-69
2023/05/31 07:35:52;;;;;;;;;9.00;7.50;;;;;14.40;72.62;102760.19;5050097;28;9688;-69
2023/05/31 07:38:24;;;;;;;;;9.25;7.00;;;;;14.48;71.92;102757.47;5017837;28;9683;-70
2023/05/31 07:40:51;;;;;;;;;9.00;9.00;;;;;14.58;71.84;102758.13;5067370;28;9662;-70
2023/05/31 07:43:20;;;;;;;;;10.75;9.00;;;;;14.64;71.60;102760.16;5064924;28;9767;-69
2023/05/31 07:45:50;;;;;;;;;10.25;8.00;;;;;14.70;71.75;102759.44;5069483;28;9600;-69
2023/05/31 07:48:17;;;;;;;;;10.50;10.00;;;;;14.73;71.53;102764.53;5069592;28;9700;-71
2023/05/31 07:50:45;;;;;;;;;6.00;5.00;;;;;14.81;71.30;102756.34;5070144;28;9512;-70
2023/05/31 07:53:11;;;;;;;;;7.50;7.00;;;;;14.89;71.04;102752.78;5052029;28;9619;-70
2023/05/31 07:55:38;;;;;;;;;8.00;8.00;;;;;14.89;70.79;102757.34;5061052;28;9600;-69
2023/05/31 07:58:05;;;;;;;;;12.00;9.25;;;;;14.79;70.22;102752.16;5048584;28;9550;-71
2023/05/31 08:00:32;;;;;;;;;6.50;6.00;;;;;14.80;70.85;102756.53;5058158;28;9459;-68
2023/05/31 08:03:01;;;;;;;;;9.25;7.00;;;;;14.86;70.82;102752.28;5069813;28;9454;-68
2023/05/31 08:05:27;;;;;;;;;14.75;12.00;;;;;14.84;70.47;102758.72;5051260;28;9459;-69
2023/05/31 08:07:54;;;;;;;;;9.75;9.25;;;;;14.84;70.64;102752.47;5068184;28;9522;-69
2023/05/31 08:10:21;;;;;;;;;9.00;7.00;;;;;14.76;70.85;102753.34;5059900;28;9460;-70
2023/05/31 08:12:47;;;;;;;;;16.25;11.00;;;;;14.77;70.21;102746.88;5057594;28;10130;-71
2023/05/31 08:15:14;;;;;;;;;9.50;7.75;;;;;14.80;71.02;102751.13;5065215;28;9685;-70
2023/05/31 08:17:41;;;;;;;;;12.00;9.50;;;;;14.92;70.89;102752.41;5064202;28;9448;-69
2023/05/31 08:20:10;;;;;;;;;10.50;7.25;;;;;14.97;70.43;102744.59;5069852;28;9446;-69
2023/05/31 08:22:36;;;;;;;;;12.00;10.00;;;;;15.01;70.57;102742.38;5065641;28;9549;-68
2023/05/31 08:25:03;;;;;;;;;9.00;9.00;;;;;15.06;70.66;102739.97;5063991;28;9592;-67
2023/05/31 08:27:30;;;;;;;;;6.50;6.50;;;;;15.09;70.57;102739.63;5069095;28;9431;-69
2023/05/31 08:29:56;;;;;;;;;11.00;10.00;;;;;15.13;69.39;102738.25;5051946;28;9542;-68
2023/05/31 08:32:23;;;;;;;;;8.00;8.00;;;;;15.15;70.16;102736.22;5069241;28;10099;-67
2023/05/31 08:34:49;;;;;;;;;9.50;9.50;;;;;15.22;70.21;102737.16;5049998;28;9368;-67
2023/05/31 08:37:16;;;;;;;;;11.00;8.25;;;;;15.37;69.51;102726.41;5052235;28;9476;-67
2023/05/31 08:39:42;;;;;;;;;10.67;10.00;;;;;15.40;69.74;102728.75;5058162;28;9464;-70
2023/05/31 08:42:24;;;;;;;;;10.00;10.00;;;;;15.44;69.31;102737.38;5068717;28;9383;-68
2023/05/31 08:44:51;;;;;;;;;12.00;10.00;;;;;15.44;69.34;102730.09;5067905;28;9445;-69
2023/05/31 08:47:25;;;;;;;;;11.50;10.50;;;;;15.41;69.29;102730.44;5066726;28;9469;-69
2023/05/31 08:49:54;;;;;;;;;16.33;12.67;;;;;15.35;69.63;102731.16;5051839;28;9655;-69
2023/05/31 08:52:21;;;;;;;;;12.50;9.25;;;;;15.31;69.93;102735.25;5067864;28;9565;-69
2023/05/31 08:54:50;;;;;;;;;9.75;9.50;;;;;15.34;70.54;102727.59;5072163;28;9521;-68
2023/05/31 08:57:17;;;;;;;;;15.00;12.75;;;;;15.40;69.63;102717.91;5071618;28;9438;-70
2023/05/31 08:59:44;;;;;;;;;10.00;10.00;;;;;15.49;70.02;102727.66;5073214;28;9467;-68
2023/05/31 09:02:13;;;;;;;;;14.75;12.00;;;;;15.45;69.30;102728.22;5071955;28;9408;-69
2023/05/31 09:04:40;;;;;;;;;9.67;8.00;;;;;15.49;70.05;102724.13;5052780;28;9478;-68
2023/05/31 09:07:07;;;;;;;;;10.67;9.67;;;;;15.55;70.41;102726.09;5038519;28;9419;-68
2023/05/31 09:09:34;;;;;;;;;13.50;10.50;;;;;15.65;70.71;102732.16;5052871;28;9305;-69
2023/05/31 09:12:00;;;;;;;;;13.00;11.00;;;;;15.69;69.91;102728.06;5052946;28;9448;-68
2023/05/31 09:14:27;;;;;;;;;14.25;11.25;;;;;15.67;69.77;102735.53;5071495;28;9358;-69
2023/05/31 09:16:54;;;;;;;;;10.25;10.25;;;;;15.74;69.95;102731.06;5072779;28;9505;-68
2023/05/31 09:19:21;;;;;;;;;14.50;13.75;;;;;15.76;69.82;102729.03;5072422;28;9549;-67
2023/05/31 09:21:47;;;;;;;;;13.00;12.50;;;;;15.79;69.18;102723.22;5066883;28;9509;-68
2023/05/31 09:24:18;;;;;;;;;13.75;13.00;;;;;15.83;69.68;102727.25;5071740;28;9357;-68
2023/05/31 09:26:47;;;;;;;;;11.25;9.00;;;;;15.92;69.64;102725.34;5049906;28;9366;-68
2023/05/31 09:29:15;;;;;;;;;14.33;14.00;;;;;16.01;68.54;102726.94;5052408;28;9432;-68
2023/05/31 09:31:41;;;;;;;;;17.50;13.75;;;;;16.02;68.75;102717.75;5056260;28;9372;-69
2023/05/31 09:34:26;;;;;;;;;17.25;10.50;;;;;16.08;68.53;102721.59;5050564;28;9447;-68
2023/05/31 09:36:57;;;;;;;;;14.00;14.00;;;;;16.10;67.94;102716.00;5052595;28;9451;-69
2023/05/31 09:39:23;;;;;;;;;22.50;14.50;;;;;16.06;67.23;102715.50;5052641;28;9531;-68
2023/05/31 09:41:51;;;;;;;;;16.33;14.00;;;;;16.05;68.11;102714.66;5052462;28;9530;-69
2023/05/31 09:44:18;;;;;;;;;13.25;11.75;;;;;16.10;68.00;102710.56;5052101;28;9453;-68
2023/05/31 09:46:46;;;;;;;;;20.25;16.25;;;;;16.14;67.90;102704.56;5052308;28;9636;-68
2023/05/31 09:49:14;;;;;;;;;13.00;10.00;;;;;16.22;67.49;102703.63;5048620;28;9447;-69
2023/05/31 09:51:51;;;;;;;;;12.33;10.33;;;;;16.28;67.74;102705.59;5068493;28;9276;-69
2023/05/31 09:54:22;;;;;;;;;12.33;11.67;;;;;16.43;68.00;102703.72;5051901;28;9501;-69
2023/05/31 09:56:50;;;;;;;;;14.33;12.67;;;;;16.51;66.91;102706.34;5056392;28;9379;-68
2023/05/31 09:59:17;;;;;;;;;14.25;11.75;;;;;16.45;65.22;102704.41;5070923;28;9446;-69
2023/05/31 10:01:44;;;;;;;;;16.00;13.00;;;;;16.32;66.25;102702.31;5064460;28;9464;-69
2023/05/31 10:04:12;;;;;;;;;11.33;11.33;;;;;16.30;66.92;102698.94;5070952;28;9449;-68
2023/05/31 10:06:38;;;;;;;;;12.33;10.33;;;;;16.40;67.35;102697.81;5068607;28;9465;-69
2023/05/31 10:09:07;;;;;;;;;13.67;12.67;;;;;16.44;66.46;102697.25;5051813;28;9383;-70
2023/05/31 10:11:36;;;;;;;;;17.50;15.75;;;;;16.50;66.86;102690.25;5052441;28;9396;-69
2023/05/31 10:14:09;;;;;;;;;15.33;12.00;;;;;16.64;66.68;102697.53;5053770;28;9391;-70
2023/05/31 10:16:45;;;;;;;;;17.00;12.33;;;;;16.70;65.15;102690.50;5054178;28;9476;-69
2023/05/31 10:19:16;;;;;;;;;15.00;12.75;;;;;16.66;65.76;102691.91;5051428;28;10066;-70
2023/05/31 10:21:43;;;;;;;;;15.67;12.00;;;;;16.68;65.53;102696.13;5052554;28;9435;-69
2023/05/31 10:24:31;;;;;;;;;13.00;11.33;;;;;16.76;65.95;102689.75;5033147;28;9374;-69
2023/05/31 10:27:29;;;;;;;;;16.25;16.25;;;;;16.87;64.78;102683.84;5064106;28;9362;-68
2023/05/31 10:30:03;;;;;;;;;12.00;11.67;;;;;16.90;64.13;102682.63;5059341;28;9449;-69
2023/05/31 10:32:37;;;;;;;;;12.67;8.67;;;;;16.97;64.72;102680.81;5069972;28;9430;-69
2023/05/31 10:35:05;;;;;;;;;14.33;11.33;;;;;17.04;64.30;102679.00;5049646;28;9263;-69
2023/05/31 10:37:32;;;;;;;;;11.67;11.67;;;;;17.11;65.11;102679.94;5068202;28;9234;-69
2023/05/31 10:40:10;;;;;;;;;12.67;11.33;;;;;17.24;64.65;102679.22;5070449;28;9294;-69
2023/05/31 10:43:17;;;;;;;;;12.67;11.00;;;;;17.38;64.00;102674.75;5066463;28;9239;-68
2023/05/31 10:45:59;;;;;;;;;13.67;13.33;;;;;17.35;61.69;102675.16;5051244;28;9235;-69
2023/05/31 10:48:46;;;;;;;;;13.67;12.33;;;;;17.27;61.21;102668.78;5067594;28;9474;-70
2023/05/31 10:51:15;;;;;;;;;10.67;9.67;;;;;17.21;62.00;102657.81;5065411;28;9395;-70
2023/05/31 10:53:48;;;;;;;;;15.00;12.33;;;;;17.20;62.27;102650.72;5052863;28;9300;-70
2023/05/31 10:56:15;;;;;;;;;12.33;12.33;;;;;17.27;62.30;102657.06;5049999;28;9226;-70
2023/05/31 10:58:51;;;;;;;;;10.00;10.00;;;;;17.39;61.69;102665.56;5051894;28;9235;-70
2023/05/31 11:01:20;;;;;;;;;7.67;7.67;;;;;17.43;61.66;102658.69;5051133;28;9228;-71
2023/05/31 11:03:50;;;;;;;;;9.33;8.33;;;;;17.53;61.85;102649.13;5049807;28;9283;-70
2023/05/31 11:06:22;;;;;;;;;10.33;10.33;;;;;17.67;60.98;102652.81;5049918;28;9148;-71
2023/05/31 11:09:10;;;;;;;;;10.67;10.67;;;;;17.70;60.95;102646.97;5055184;28;9093;-70
2023/05/31 11:11:39;;;;;;;;;12.33;12.33;;;;;17.79;60.27;102650.44;5069395;28;9129;-71
2023/05/31 11:14:15;;;;;;;;;14.67;10.00;;;;;17.73;60.23;102649.28;5069267;28;8983;-71
2023/05/31 11:16:48;;;;;;;;;11.67;11.67;;;;;17.72;59.37;102644.88;5043889;28;9082;-69
2023/05/31 11:19:20;;;;;;;;;11.33;11.33;;;;;17.79;59.42;102645.81;5052554;28;9160;-70
2023/05/31 11:21:55;;;;;;;;;11.67;11.33;;;;;17.87;59.45;102647.56;5063092;28;9085;-70
2023/05/31 11:24:37;;;;;;;;;10.33;10.33;;;;;17.93;59.58;102640.47;5048052;28;9006;-71
2023/05/31 11:27:05;;;;;;;;;8.00;8.00;;;;;17.95;59.53;102638.41;5050821;28;8974;-71
2023/05/31 11:29:44;;;;;;;;;11.33;11.33;;;;;18.03;59.67;102630.91;5049989;28;8913;-71
2023/05/31 11:32:11;;;;;;;;;12.00;9.67;;;;;18.14;58.84;102642.25;5048854;28;8982;-69
2023/05/31 11:34:51;;;;;;;;;10.33;9.67;;;;;18.19;58.07;102635.19;5032745;28;9068;-70
2023/05/31 11:37:17;;;;;;;;;9.00;8.67;;;;;18.18;58.33;102644.38;5037131;28;9722;-70
2023/05/31 11:39:44;;;;;;;;;11.33;10.00;;;;;18.17;58.28;102634.53;5050978;28;9057;-69